createdAt,value
2023-04-04T00:00:32.669Z,102509.88
2023-04-04T00:03:00.717Z,102510.81
2023-04-04T00:05:28.710Z,102512.69
2023-04-04T00:07:56.630Z,102506.44
2023-04-04T00:10:24.560Z,102511.91
2023-04-04T00:12:53.937Z,102510.13
2023-04-04T00:15:22.135Z,102512.06
2023-04-04T00:17:50.508Z,102510.31
2023-04-04T00:20:18.489Z,102509.50
2023-04-04T00:22:46.385Z,102506.84
2023-04-04T00:25:14.510Z,102515.06
2023-04-04T00:27:42.578Z,102507.91
2023-04-04T00:30:13.380Z,102505.19
2023-04-04T00:32:42.876Z,102509.03
2023-04-04T00:35:10.970Z,102502.72
2023-04-04T00:37:39.056Z,102504.59
2023-04-04T00:40:08.529Z,102509.13
2023-04-04T00:42:37.343Z,102510.25
2023-04-04T00:45:06.141Z,102511.19
2023-04-04T00:47:36.180Z,102515.78
2023-04-04T00:50:04.188Z,102518.59
2023-04-04T00:52:32.293Z,102511.47
2023-04-04T00:55:01.371Z,102511.56
2023-04-04T00:57:29.949Z,102510.81
2023-04-04T00:59:58.326Z,102511.81
2023-04-04T01:02:26.910Z,102512.78
2023-04-04T01:04:57.183Z,102520.97
2023-04-04T01:07:25.384Z,102515.69
2023-04-04T01:09:53.570Z,102512.13
2023-04-04T01:12:21.436Z,102511.34
2023-04-04T01:14:49.409Z,102510.53
2023-04-04T01:17:18.108Z,102514.22
2023-04-04T01:19:50.654Z,102507.97
2023-04-04T01:22:23.930Z,102501.78
2023-04-04T01:24:53.116Z,102503.63
2023-04-04T01:27:23.509Z,102501.88
2023-04-04T01:29:57.099Z,102507.41
2023-04-04T01:32:30.514Z,102506.47
2023-04-04T01:35:03.795Z,102500.22
2023-04-04T01:37:36.875Z,102500.25
2023-04-04T01:40:12.756Z,102499.53
2023-04-04T01:42:44.852Z,102494.97
2023-04-04T01:45:12.971Z,102493.19
2023-04-04T01:47:41.724Z,102494.13
2023-04-04T01:50:14.092Z,102493.22
2023-04-04T01:52:42.185Z,102499.53
2023-04-04T01:55:10.917Z,102492.28
2023-04-04T01:57:39.614Z,102489.59
2023-04-04T02:00:10.967Z,102491.38
2023-04-04T02:02:45.137Z,102490.59
2023-04-04T02:05:13.569Z,102493.22
2023-04-04T02:07:41.921Z,102497.75
2023-04-04T02:10:22.387Z,102488.75
2023-04-04T02:12:50.664Z,102495.94
2023-04-04T02:15:20.076Z,102495.91
2023-04-04T02:17:49.483Z,102497.75
2023-04-04T02:20:19.523Z,102501.44
2023-04-04T02:22:54.586Z,102494.13
2023-04-04T02:25:24.182Z,102495.13
2023-04-04T02:27:52.221Z,102490.66
2023-04-04T02:30:21.388Z,102486.13
2023-04-04T02:32:51.116Z,102483.47
2023-04-04T02:35:21.295Z,102478.97
2023-04-04T02:37:49.117Z,102490.75
2023-04-04T02:40:36.025Z,102479.06
2023-04-04T02:43:04.084Z,102473.69
2023-04-04T02:45:33.629Z,102469.25
2023-04-04T02:48:13.291Z,102468.41
2023-04-04T02:50:47.343Z,102469.25
2023-04-04T02:53:16.785Z,102471.38
2023-04-04T02:55:46.243Z,102473.16
2023-04-04T02:58:14.522Z,102466.84
2023-04-04T03:00:43.820Z,102467.78
2023-04-04T03:03:12.391Z,102467.88
2023-04-04T03:05:45.613Z,102468.00
2023-04-04T03:08:13.490Z,102464.53
2023-04-04T03:10:41.654Z,102473.56
2023-04-04T03:13:09.752Z,102469.13
2023-04-04T03:15:38.065Z,102466.53
2023-04-04T03:18:07.623Z,102471.06
2023-04-04T03:20:36.077Z,102467.56
2023-04-04T03:23:03.953Z,102469.47
2023-04-04T03:25:31.702Z,102467.72
2023-04-04T03:27:59.655Z,102472.31
2023-04-04T03:30:28.288Z,102469.63
2023-04-04T03:32:56.744Z,102469.69
2023-04-04T03:35:26.002Z,102473.34
2023-04-04T03:37:56.403Z,102472.50
2023-04-04T03:40:24.298Z,102472.56
2023-04-04T03:42:52.598Z,102467.19
2023-04-04T03:45:21.825Z,102468.13
2023-04-04T03:47:49.872Z,102465.50
2023-04-04T03:50:18.870Z,102473.66
2023-04-04T03:52:53.770Z,102466.41
2023-04-04T03:55:21.688Z,102460.16
2023-04-04T03:57:49.492Z,102458.38
2023-04-04T04:00:18.384Z,102453.94
2023-04-04T04:02:46.959Z,102458.47
2023-04-04T04:05:14.953Z,102446.75
2023-04-04T04:07:45.383Z,102447.66
2023-04-04T04:10:15.157Z,102450.44
2023-04-04T04:12:42.994Z,102450.53
2023-04-04T04:15:11.832Z,102451.41
2023-04-04T04:17:42.127Z,102451.44
2023-04-04T04:20:12.450Z,102451.44
2023-04-04T04:22:51.445Z,102452.44
2023-04-04T04:25:22.884Z,102455.97
2023-04-04T04:28:04.013Z,102455.31
2023-04-04T04:30:32.711Z,102457.06
2023-04-04T04:33:00.812Z,102446.28
2023-04-04T04:35:38.716Z,102442.69
2023-04-04T04:38:07.191Z,102446.38
2023-04-04T04:40:36.700Z,102441.84
2023-04-04T04:43:13.932Z,102445.56
2023-04-04T04:45:43.020Z,102446.47
2023-04-04T04:48:13.056Z,102443.75
2023-04-04T04:50:49.030Z,102441.09
2023-04-04T04:53:25.791Z,102440.25
2023-04-04T04:55:55.196Z,102445.66
2023-04-04T04:58:25.012Z,102447.53
2023-04-04T05:00:58.078Z,102446.72
2023-04-04T05:03:33.272Z,102447.69
2023-04-04T05:06:01.695Z,102449.50
2023-04-04T05:08:30.252Z,102445.03
2023-04-04T05:11:14.412Z,102451.19
2023-04-04T05:13:42.936Z,102447.09
2023-04-04T05:16:10.925Z,102440.69
2023-04-04T05:18:39.031Z,102441.63
2023-04-04T05:21:11.111Z,102449.78
2023-04-04T05:23:39.690Z,102447.97
2023-04-04T05:26:08.779Z,102454.31
2023-04-04T05:28:41.572Z,102451.59
2023-04-04T05:31:09.435Z,102449.88
2023-04-04T05:33:38.890Z,102456.25
2023-04-04T05:36:28.004Z,102455.41
2023-04-04T05:39:01.307Z,102457.22
2023-04-04T05:41:33.322Z,102465.31
2023-04-04T05:44:10.733Z,102467.09
2023-04-04T05:46:39.138Z,102467.09
2023-04-04T05:49:08.144Z,102468.88
2023-04-04T05:51:40.582Z,102469.75
2023-04-04T05:54:12.104Z,102473.28
2023-04-04T05:56:40.774Z,102477.72
2023-04-04T05:59:17.803Z,102475.91
2023-04-04T06:01:57.566Z,102480.44
2023-04-04T06:04:25.528Z,102484.91
2023-04-04T06:06:56.113Z,102492.06
2023-04-04T06:09:24.185Z,102495.56
2023-04-04T06:11:52.532Z,102499.09
2023-04-04T06:14:21.917Z,102495.28
2023-04-04T06:16:50.114Z,102504.13
2023-04-04T06:19:18.469Z,102497.56
2023-04-04T06:21:47.508Z,102503.56
2023-04-04T06:24:16.256Z,102505.97
2023-04-04T06:26:44.888Z,102501.09
2023-04-04T06:29:13.618Z,102509.88
2023-04-04T06:31:44.648Z,102504.97
2023-04-04T06:34:22.652Z,102515.56
2023-04-04T06:36:58.958Z,102513.41
2023-04-04T06:39:31.489Z,102513.03
2023-04-04T06:42:02.245Z,102512.63
2023-04-04T06:44:32.634Z,102516.72
2023-04-04T06:47:02.019Z,102508.09
2023-04-04T06:49:30.055Z,102508.63
2023-04-04T06:51:58.913Z,102507.34
2023-04-04T06:54:27.129Z,102512.44
2023-04-04T06:56:55.337Z,102511.16
2023-04-04T06:59:23.221Z,102520.59
2023-04-04T07:01:51.190Z,102521.06
2023-04-04T07:04:21.350Z,102526.78
2023-04-04T07:06:49.294Z,102524.44
2023-04-04T07:09:28.122Z,102522.03
2023-04-04T07:11:57.502Z,102516.63
2023-04-04T07:14:26.074Z,102516.81
2023-04-04T07:16:55.308Z,102524.75
2023-04-04T07:19:28.633Z,102515.31
2023-04-04T07:21:56.872Z,102524.75
2023-04-04T07:24:24.881Z,102529.47
2023-04-04T07:26:52.834Z,102522.34
2023-04-04T07:29:21.565Z,102522.34
2023-04-04T07:31:49.577Z,102520.56
2023-04-04T07:34:17.586Z,102514.22
2023-04-04T07:36:46.829Z,102514.25
2023-04-04T07:39:14.661Z,102519.19
2023-04-04T07:41:42.572Z,102513.31
2023-04-04T07:44:10.616Z,102516.78
2023-04-04T07:46:42.741Z,102507.50
2023-04-04T07:49:13.118Z,102508.63
2023-04-04T07:51:41.579Z,102508.78
2023-04-04T07:54:10.743Z,102502.66
2023-04-04T07:56:38.615Z,102506.00
2023-04-04T07:59:06.709Z,102501.94
2023-04-04T08:01:34.501Z,102503.50
2023-04-04T08:04:03.204Z,102505.28
2023-04-04T08:06:31.169Z,102505.34
2023-04-04T08:08:58.961Z,102490.13
2023-04-04T08:11:28.600Z,102489.31
2023-04-04T08:13:56.503Z,102483.59
2023-04-04T08:16:24.497Z,102484.28
2023-04-04T08:18:52.666Z,102487.19
2023-04-04T08:21:20.562Z,102485.88
2023-04-04T08:23:48.587Z,102488.09
2023-04-04T08:26:16.753Z,102476.72
2023-04-04T08:28:46.422Z,102487.16
2023-04-04T08:31:14.546Z,102491.28
2023-04-04T08:33:47.299Z,102488.97
2023-04-04T08:36:16.125Z,102487.47
2023-04-04T08:38:44.671Z,102488.88
2023-04-04T08:41:17.006Z,102500.78
2023-04-04T08:43:54.501Z,102489.22
2023-04-04T08:46:24.210Z,102491.06
2023-04-04T08:48:54.353Z,102492.91
2023-04-04T08:51:23.795Z,102485.59
2023-04-04T08:53:51.990Z,102478.38
2023-04-04T08:56:19.769Z,102482.81
2023-04-04T08:58:49.206Z,102488.97
2023-04-04T09:01:17.412Z,102487.31
2023-04-04T09:03:46.088Z,102489.38
2023-04-04T09:06:14.741Z,102485.69
2023-04-04T09:08:43.832Z,102481.00
2023-04-04T09:11:13.043Z,102481.88
2023-04-04T09:13:42.612Z,102489.19
2023-04-04T09:16:11.889Z,102488.03
2023-04-04T09:18:39.706Z,102487.75
2023-04-04T09:21:11.357Z,102489.69
2023-04-04T09:23:39.716Z,102488.88
2023-04-04T09:26:07.757Z,102485.53
2023-04-04T09:28:36.778Z,102485.22
2023-04-04T09:31:08.301Z,102477.75
2023-04-04T09:33:39.652Z,102486.59
2023-04-04T09:36:10.295Z,102469.41
2023-04-04T09:38:40.592Z,102472.81
2023-04-04T09:41:09.731Z,102472.00
2023-04-04T09:43:38.540Z,102468.16
2023-04-04T09:46:07.875Z,102480.09
2023-04-04T09:48:37.433Z,102469.34
2023-04-04T09:51:06.680Z,102456.22
2023-04-04T09:53:36.900Z,102462.34
2023-04-04T09:56:05.056Z,102462.00
2023-04-04T09:58:36.367Z,102457.16
2023-04-04T10:01:06.685Z,102453.84
2023-04-04T10:03:34.587Z,102457.91
2023-04-04T10:06:07.168Z,102454.72
2023-04-04T10:08:36.009Z,102445.94
2023-04-04T10:11:11.984Z,102463.91
2023-04-04T10:13:43.782Z,102444.97
2023-04-04T10:16:12.266Z,102444.34
2023-04-04T10:18:40.451Z,102449.09
2023-04-04T10:23:43.256Z,102440.91
2023-04-04T10:26:12.841Z,102437.66
2023-04-04T10:28:42.413Z,102447.50
2023-04-04T10:31:18.608Z,102441.16
2023-04-04T10:33:53.424Z,102437.31
2023-04-04T10:36:26.289Z,102428.09
2023-04-04T10:38:59.562Z,102427.69
2023-04-04T10:41:31.545Z,102432.59
2023-04-04T10:44:06.444Z,102434.94
2023-04-04T10:46:38.257Z,102432.13
2023-04-04T10:49:06.595Z,102419.16
2023-04-04T10:51:45.168Z,102407.25
2023-04-04T10:54:13.722Z,102411.66
2023-04-04T10:56:42.596Z,102406.97
2023-04-04T10:59:13.264Z,102396.91
2023-04-04T11:01:49.547Z,102393.13
2023-04-04T11:04:21.252Z,102393.94
2023-04-04T11:07:17.166Z,102392.34
2023-04-04T11:09:52.378Z,102394.91
2023-04-04T11:12:28.200Z,102382.03
2023-04-04T11:14:58.098Z,102376.34
2023-04-04T11:17:42.990Z,102373.84
2023-04-04T11:20:11.648Z,102376.28
2023-04-04T11:22:42.651Z,102374.25
2023-04-04T11:25:36.095Z,102374.34
2023-04-04T11:28:25.042Z,102371.13
2023-04-04T11:31:27.561Z,102379.44
2023-04-04T11:33:57.458Z,102380.13
2023-04-04T11:36:25.786Z,102374.28
2023-04-04T11:38:58.453Z,102359.91
2023-04-04T11:41:45.006Z,102367.44
2023-04-04T11:44:12.918Z,102376.69
2023-04-04T11:46:42.274Z,102364.41
2023-04-04T11:49:11.327Z,102373.50
2023-04-04T11:51:40.802Z,102366.09
2023-04-04T11:54:16.676Z,102354.97
2023-04-04T11:56:45.393Z,102344.72
2023-04-04T11:59:14.017Z,102358.38
2023-04-04T12:01:42.391Z,102357.91
2023-04-04T12:04:11.068Z,102355.09
2023-04-04T12:06:39.465Z,102338.41
2023-04-04T12:09:08.708Z,102341.63
2023-04-04T12:11:38.467Z,102339.38
2023-04-04T12:14:06.383Z,102335.78
2023-04-04T12:16:34.272Z,102333.75
2023-04-04T12:19:03.063Z,102322.41
2023-04-04T12:21:33.145Z,102319.56
2023-04-04T12:24:01.040Z,102319.66
2023-04-04T12:26:30.121Z,102327.69
2023-04-04T12:28:59.776Z,102321.91
2023-04-04T12:31:28.709Z,102327.97
2023-04-04T12:33:56.725Z,102322.28
2023-04-04T12:36:26.663Z,102314.78
2023-04-04T12:38:59.951Z,102312.81
2023-04-04T12:41:27.975Z,102316.94
2023-04-04T12:44:06.364Z,102293.97
2023-04-04T12:46:39.689Z,102287.09
2023-04-04T12:49:09.449Z,102299.81
2023-04-04T12:51:38.718Z,102281.25
2023-04-04T12:54:07.746Z,102277.31
2023-04-04T12:56:37.036Z,102274.38
2023-04-04T12:59:10.806Z,102276.81
2023-04-04T13:01:39.139Z,102274.06
2023-04-04T13:04:09.677Z,102268.31
2023-04-04T13:06:38.462Z,102270.91
2023-04-04T13:09:07.797Z,102273.66
2023-04-04T13:12:09.745Z,102266.44
2023-04-04T13:14:58.428Z,102256.75
2023-04-04T13:17:26.452Z,102258.31
2023-04-04T13:19:54.306Z,102246.38
2023-04-04T13:22:22.223Z,102247.28
2023-04-04T13:24:50.065Z,102252.63
2023-04-04T13:27:17.947Z,102248.03
2023-04-04T13:29:45.814Z,102239.59
2023-04-04T13:32:15.035Z,102233.72
2023-04-04T13:34:42.825Z,102225.38
2023-04-04T13:37:10.672Z,102233.41
2023-04-04T13:39:38.863Z,102224.09
2023-04-04T13:42:06.845Z,102230.25
2023-04-04T13:44:34.804Z,102230.25
2023-04-04T13:47:03.351Z,102223.69
2023-04-04T13:49:32.505Z,102227.41
2023-04-04T13:52:00.444Z,102219.72
2023-04-04T13:54:28.214Z,102223.09
2023-04-04T13:56:57.370Z,102217.06
2023-04-04T13:59:25.275Z,102219.91
2023-04-04T14:01:53.257Z,102207.38
2023-04-04T14:04:24.204Z,102205.84
2023-04-04T14:06:53.674Z,102201.69
2023-04-04T14:09:22.142Z,102205.69
2023-04-04T14:11:49.982Z,102201.19
2023-04-04T14:14:17.985Z,102196.13
2023-04-04T14:16:45.851Z,102199.94
2023-04-04T14:19:13.661Z,102187.56
2023-04-04T14:21:41.579Z,102181.44
2023-04-04T14:24:10.839Z,102179.44
2023-04-04T14:26:38.724Z,102177.03
2023-04-04T14:29:07.051Z,102171.75
2023-04-04T14:31:35.061Z,102180.19
2023-04-04T14:34:03.028Z,102172.13
2023-04-04T14:36:31.642Z,102177.53
2023-04-04T14:38:59.969Z,102171.44
2023-04-04T14:41:29.431Z,102165.00
2023-04-04T14:43:58.414Z,102172.44
2023-04-04T14:46:26.364Z,102167.06
2023-04-04T14:48:54.181Z,102159.16
2023-04-04T14:51:22.213Z,102160.13
2023-04-04T14:53:52.361Z,102151.91
2023-04-04T14:56:23.206Z,102152.94
2023-04-04T14:58:52.941Z,102151.81
2023-04-04T15:01:21.864Z,102148.44
2023-04-04T15:03:49.734Z,102150.28
2023-04-04T15:06:17.572Z,102143.72
2023-04-04T15:08:45.582Z,102140.97
2023-04-04T15:11:13.912Z,102140.31
2023-04-04T15:13:42.107Z,102141.28
2023-04-04T15:16:11.442Z,102136.00
2023-04-04T15:18:40.069Z,102137.78
2023-04-04T15:21:07.976Z,102133.88
2023-04-04T15:23:35.869Z,102138.28
2023-04-04T15:26:03.816Z,102146.03
2023-04-04T15:28:31.643Z,102130.13
2023-04-04T15:31:02.026Z,102128.81
2023-04-04T15:33:31.275Z,102122.56
2023-04-04T15:35:59.056Z,102123.66
2023-04-04T15:38:26.982Z,102118.28
2023-04-04T15:40:54.819Z,102122.97
2023-04-04T15:43:22.742Z,102116.84
2023-04-04T15:45:50.880Z,102115.00
2023-04-04T15:48:19.183Z,102117.91
2023-04-04T15:50:48.757Z,102125.34
2023-04-04T15:53:17.780Z,102111.38
2023-04-04T15:55:45.593Z,102116.09
2023-04-04T15:58:13.825Z,102115.22
2023-04-04T16:00:47.272Z,102111.47
2023-04-04T16:03:15.706Z,102113.53
2023-04-04T16:05:43.696Z,102110.13
2023-04-04T16:08:14.609Z,102111.41
2023-04-04T16:10:44.055Z,102113.84
2023-04-04T16:13:12.126Z,102113.06
2023-04-04T16:15:40.159Z,102114.16
2023-04-04T16:18:08.700Z,102101.47
2023-04-04T16:20:37.111Z,102104.38
2023-04-04T16:23:05.041Z,102101.25
2023-04-04T16:25:34.309Z,102101.56
2023-04-04T16:28:02.910Z,102102.63
2023-04-04T16:30:32.051Z,102106.41
2023-04-04T16:33:00.039Z,102102.94
2023-04-04T16:35:28.059Z,102097.69
2023-04-04T16:37:56.190Z,102091.34
2023-04-04T16:40:24.040Z,102096.31
2023-04-04T16:42:53.189Z,102094.78
2023-04-04T16:45:21.671Z,102088.63
2023-04-04T16:47:49.884Z,102087.91
2023-04-04T16:50:17.988Z,102084.59
2023-04-04T16:52:45.981Z,102082.16
2023-04-04T16:55:13.962Z,102086.13
2023-04-04T16:57:42.687Z,102083.50
2023-04-04T17:00:14.000Z,102083.63
2023-04-04T17:02:45.672Z,102079.31
2023-04-04T17:05:14.403Z,102077.53
2023-04-04T17:07:43.007Z,102073.16
2023-04-04T17:10:12.027Z,102079.47
2023-04-04T17:12:40.281Z,102076.97
2023-04-04T17:15:09.326Z,102077.03
2023-04-04T17:17:38.824Z,102073.59
2023-04-04T17:20:07.781Z,102080.84
2023-04-04T17:22:35.764Z,102078.31
2023-04-04T17:25:03.836Z,102077.50
2023-04-04T17:27:31.885Z,102069.41
2023-04-04T17:29:59.724Z,102071.25
2023-04-04T17:32:27.609Z,102072.34
2023-04-04T17:34:56.899Z,102073.19
2023-04-04T17:37:24.873Z,102066.00
2023-04-04T17:39:52.810Z,102068.75
2023-04-04T17:42:20.600Z,102065.13
2023-04-04T17:44:48.549Z,102060.72
2023-04-04T17:47:16.375Z,102061.59
2023-04-04T17:49:44.752Z,102067.06
2023-04-04T17:52:19.031Z,102064.25
2023-04-04T17:54:47.921Z,102061.59
2023-04-04T17:57:15.832Z,102065.22
2023-04-04T17:59:44.129Z,102053.41
2023-04-04T18:02:12.076Z,102060.63
2023-04-04T18:04:40.119Z,102061.59
2023-04-04T18:07:08.438Z,102068.91
2023-04-04T18:09:37.789Z,102076.22
2023-04-04T18:12:05.675Z,102063.53
2023-04-04T18:14:33.702Z,102057.28
2023-04-04T18:17:01.650Z,102059.13
2023-04-04T18:19:30.330Z,102059.25
2023-04-04T18:22:00.123Z,102057.50
2023-04-04T18:24:28.432Z,102061.19
2023-04-04T18:26:57.921Z,102060.41
2023-04-04T18:29:26.839Z,102057.97
2023-04-04T18:31:54.944Z,102054.53
2023-04-04T18:34:22.984Z,102058.44
2023-04-04T18:36:50.761Z,102050.41
2023-04-04T18:39:18.730Z,102048.75
2023-04-04T18:41:46.660Z,102041.63
2023-04-04T18:44:15.972Z,102049.81
2023-04-04T18:46:43.916Z,102042.78
2023-04-04T18:49:11.756Z,102050.06
2023-04-04T18:51:39.586Z,102053.84
2023-04-04T18:54:07.701Z,102064.00
2023-04-04T18:56:37.177Z,102062.31
2023-04-04T18:59:06.492Z,102067.94
2023-04-04T19:01:36.031Z,102065.22
2023-04-04T19:04:04.766Z,102069.13
2023-04-04T19:06:33.671Z,102072.00
2023-04-04T19:09:04.453Z,102072.09
2023-04-04T19:11:35.882Z,102070.53
2023-04-04T19:14:03.938Z,102072.50
2023-04-04T19:16:32.001Z,102074.47
2023-04-04T19:19:01.410Z,102074.56
2023-04-04T19:21:29.212Z,102078.31
2023-04-04T19:23:57.019Z,102081.22
2023-04-04T19:26:24.930Z,102088.53
2023-04-04T19:28:53.016Z,102093.13
2023-04-04T19:31:22.444Z,102089.59
2023-04-04T19:33:51.509Z,102090.63
2023-04-04T19:36:20.861Z,102088.88
2023-04-04T19:38:49.517Z,102091.00
2023-04-04T19:41:33.727Z,102092.84
2023-04-04T19:44:01.736Z,102091.34
2023-04-04T19:46:32.919Z,102086.88
2023-04-04T19:49:01.863Z,102083.50
2023-04-04T19:51:42.704Z,102083.50
2023-04-04T19:54:16.108Z,102088.34
2023-04-04T19:56:47.331Z,102090.47
2023-04-04T19:59:52.499Z,102091.66
2023-04-04T20:02:49.837Z,102096.50
2023-04-04T20:05:56.826Z,102090.41
2023-04-04T20:08:29.329Z,102089.56
2023-04-04T20:10:57.864Z,102090.59
2023-04-04T20:13:26.047Z,102095.16
2023-04-04T20:16:01.339Z,102089.63
2023-04-04T20:18:31.572Z,102089.78
2023-04-04T20:21:02.201Z,102085.31
2023-04-04T20:23:32.747Z,102083.53
2023-04-04T20:26:07.513Z,102088.22
2023-04-04T20:28:36.712Z,102088.28
2023-04-04T20:31:09.416Z,102092.78
2023-04-04T20:33:40.813Z,102094.69
2023-04-04T20:36:11.753Z,102086.44
2023-04-04T20:38:42.590Z,102090.06
2023-04-04T20:41:17.052Z,102084.50
2023-04-04T20:43:52.695Z,102088.91
2023-04-04T20:46:21.902Z,102090.75
2023-04-04T20:48:50.598Z,102096.13
2023-04-04T20:51:27.252Z,102091.47
2023-04-04T20:53:58.566Z,102091.47
2023-04-04T20:56:55.240Z,102091.53
2023-04-04T20:59:30.554Z,102090.50
2023-04-04T21:02:12.526Z,102085.94
2023-04-04T21:04:42.315Z,102081.53
2023-04-04T21:07:10.395Z,102083.38
2023-04-04T21:09:39.574Z,102076.09
2023-04-04T21:12:07.828Z,102085.22
2023-04-04T21:14:39.047Z,102083.38
2023-04-04T21:17:07.753Z,102082.50
2023-04-04T21:19:35.608Z,102080.72
2023-04-04T21:22:04.822Z,102079.84
2023-04-04T21:24:35.420Z,102062.63
2023-04-04T21:27:07.463Z,102069.84
2023-04-04T21:29:35.434Z,102072.91
2023-04-04T21:32:03.900Z,102071.16
2023-04-04T21:34:32.400Z,102068.50
2023-04-04T21:37:03.287Z,102064.13
2023-04-04T21:39:31.818Z,102067.00
2023-04-04T21:42:01.355Z,102068.03
2023-04-04T21:44:31.500Z,102070.84
2023-04-04T21:46:59.356Z,102062.84
2023-04-04T21:49:27.441Z,102059.34
2023-04-04T21:51:55.276Z,102048.53
2023-04-04T21:54:24.146Z,102060.28
2023-04-04T21:56:51.943Z,102045.00
2023-04-04T21:59:19.827Z,102048.59
2023-04-04T22:01:49.399Z,102049.41
2023-04-04T22:04:17.241Z,102047.72
2023-04-04T22:06:45.321Z,102054.16
2023-04-04T22:09:13.110Z,102054.16
2023-04-04T22:11:45.184Z,102057.72
2023-04-04T22:14:17.331Z,102058.94
2023-04-04T22:16:45.601Z,102055.34
2023-04-04T22:19:14.933Z,102046.28
2023-04-04T22:21:47.024Z,102046.47
2023-04-04T22:24:15.574Z,102034.88
2023-04-04T22:26:45.586Z,102035.81
2023-04-04T22:29:13.544Z,102037.75
2023-04-04T22:31:41.329Z,102033.28
2023-04-04T22:34:09.466Z,102038.00
2023-04-04T22:36:39.369Z,102038.97
2023-04-04T22:39:07.305Z,102040.09
2023-04-04T22:41:35.112Z,102041.13
2023-04-04T22:44:02.930Z,102038.56
2023-04-04T22:46:31.405Z,102035.16
2023-04-04T22:49:06.691Z,102028.91
2023-04-04T22:51:43.073Z,102035.38
2023-04-04T22:54:14.457Z,102034.59
2023-04-04T22:56:42.512Z,102032.97
2023-04-04T22:59:10.437Z,102024.00
2023-04-04T23:01:38.416Z,102023.28
2023-04-04T23:04:06.616Z,102019.75
2023-04-04T23:06:35.772Z,102017.13
2023-04-04T23:09:03.569Z,102013.69
2023-04-04T23:11:32.833Z,102011.94
2023-04-04T23:14:01.149Z,102013.03
2023-04-04T23:16:29.171Z,102008.63
2023-04-04T23:18:57.104Z,102009.69
2023-04-04T23:21:25.133Z,102008.88
2023-04-04T23:23:52.927Z,102019.03
2023-04-04T23:26:20.780Z,102014.66
2023-04-04T23:28:51.880Z,102016.50
2023-04-04T23:31:20.412Z,102014.97
2023-04-04T23:33:48.217Z,102014.25
2023-04-04T23:36:16.506Z,102012.56
2023-04-04T23:38:44.336Z,102012.81
2023-04-04T23:41:12.684Z,102006.63
2023-04-04T23:43:42.805Z,101995.94
2023-04-04T23:46:14.570Z,101999.75
2023-04-04T23:48:42.539Z,101993.69
2023-04-04T23:51:10.933Z,101985.66
2023-04-04T23:53:39.186Z,101988.53
2023-04-04T23:56:07.695Z,101987.75
2023-04-04T23:58:35.647Z,101987.03
